Time;durP1;ratioP1;P1;durP2;ratioP2;P2;SDS_P1;SDS_P2;PMS_P1;PMS_P2;Temp;Humidity;BMP_temperature;BMP_pressure;BME280_temperature;BME280_humidity;BME280_pressure;Samples;Min_cycle;Max_cycle;Signal;HPM_P1;HPM_P2
2021/03/10 00:01:26;;;;;;;2.13;1.67;;;23.20;26.20;;;;;;5051242;28;20202;-59
2021/03/10 00:03:52;;;;;;;1.33;1.23;;;23.20;26.20;;;;;;5050290;28;20227;-59
2021/03/10 00:06:18;;;;;;;1.70;1.40;;;23.20;26.20;;;;;;5051597;28;20201;-59
2021/03/10 00:08:44;;;;;;;1.90;1.30;;;23.20;26.20;;;;;;5049654;28;20209;-59
2021/03/10 00:11:10;;;;;;;1.90;1.43;;;23.20;26.20;;;;;;5051137;28;20200;-59
2021/03/10 00:13:36;;;;;;;1.53;1.43;;;23.20;26.00;;;;;;5049929;28;20708;-59
2021/03/10 00:16:02;;;;;;;2.13;1.93;;;23.20;26.20;;;;;;5051819;28;20205;-59
2021/03/10 00:18:28;;;;;;;2.83;1.83;;;23.20;26.20;;;;;;5049656;28;20204;-58
2021/03/10 00:20:54;;;;;;;1.73;1.50;;;23.20;26.20;;;;;;5051467;28;20200;-59
2021/03/10 00:23:20;;;;;;;1.87;1.50;;;23.20;26.20;;;;;;5047250;28;20225;-58
2021/03/10 00:25:45;;;;;;;1.50;1.30;;;23.20;26.20;;;;;;5051860;28;20204;-59
2021/03/10 00:28:11;;;;;;;2.00;1.53;;;23.20;26.20;;;;;;5055939;28;20687;-59
2021/03/10 00:30:37;;;;;;;1.97;1.40;;;23.20;26.20;;;;;;5054388;28;20211;-59
2021/03/10 00:33:03;;;;;;;1.60;1.50;;;23.20;26.20;;;;;;5055171;28;20224;-59
2021/03/10 00:35:29;;;;;;;2.20;1.43;;;23.20;26.80;;;;;;5057851;28;20665;-58
2021/03/10 00:37:55;;;;;;;1.50;1.40;;;23.20;26.20;;;;;;5056975;28;20205;-59
2021/03/10 00:40:21;;;;;;;2.70;1.80;;;23.20;26.20;;;;;;5057920;28;20195;-58
2021/03/10 00:42:47;;;;;;;2.77;1.43;;;23.20;26.20;;;;;;5055438;28;20638;-59
2021/03/10 00:45:13;;;;;;;2.83;1.50;;;23.20;26.20;;;;;;5057866;28;20207;-59
2021/03/10 00:47:39;;;;;;;3.10;1.67;;;23.20;26.20;;;;;;5056792;28;20196;-59
2021/03/10 00:50:05;;;;;;;2.17;1.50;;;23.20;26.30;;;;;;5057655;28;20598;-61
2021/03/10 00:52:31;;;;;;;1.30;1.20;;;23.20;26.20;;;;;;5052405;28;20323;-59
2021/03/10 00:54:57;;;;;;;1.63;1.40;;;23.20;26.20;;;;;;5057326;28;20715;-60
2021/03/10 00:57:23;;;;;;;1.50;1.40;;;23.20;26.30;;;;;;5056863;28;20208;-60
2021/03/10 00:59:49;;;;;;;1.60;1.50;;;23.20;26.20;;;;;;5057600;28;20266;-60
2021/03/10 01:02:15;;;;;;;1.77;1.40;;;23.20;26.30;;;;;;5056277;28;20733;-60
2021/03/10 01:04:41;;;;;;;1.60;1.50;;;23.20;26.30;;;;;;5056603;28;20204;-60
2021/03/10 01:07:07;;;;;;;1.70;1.60;;;23.20;26.30;;;;;;5056768;28;20212;-58
2021/03/10 01:09:33;;;;;;;1.50;1.40;;;23.20;26.30;;;;;;5057688;28;20673;-58
2021/03/10 01:11:59;;;;;;;1.40;1.30;;;23.20;26.30;;;;;;5055956;28;20274;-58
2021/03/10 01:14:25;;;;;;;1.60;1.47;;;23.20;26.30;;;;;;5056145;28;20228;-58
2021/03/10 01:16:51;;;;;;;2.40;1.40;;;23.20;26.30;;;;;;5056720;28;20668;-59
2021/03/10 01:19:17;;;;;;;1.83;1.57;;;23.20;26.30;;;;;;5058319;28;20220;-59
2021/03/10 01:21:43;;;;;;;1.93;1.43;;;23.20;26.20;;;;;;5055904;28;20195;-59
2021/03/10 01:24:09;;;;;;;1.77;1.67;;;23.20;26.30;;;;;;5056311;28;20658;-59
2021/03/10 01:26:34;;;;;;;3.43;1.97;;;23.20;26.30;;;;;;5056653;28;20228;-59
2021/03/10 01:29:00;;;;;;;1.50;1.40;;;23.20;26.30;;;;;;5057782;28;20197;-59
2021/03/10 01:31:26;;;;;;;1.47;1.33;;;23.20;26.30;;;;;;5056892;28;20645;-59
2021/03/10 01:33:52;;;;;;;1.60;1.50;;;23.20;26.30;;;;;;5054968;28;20236;-59
2021/03/10 01:36:18;;;;;;;1.80;1.60;;;23.20;26.30;;;;;;5056060;28;20209;-58
2021/03/10 01:38:44;;;;;;;1.87;1.70;;;23.10;26.20;;;;;;5054254;28;20200;-59
2021/03/10 01:41:10;;;;;;;1.60;1.50;;;23.10;26.20;;;;;;5053245;28;20224;-59
2021/03/10 01:43:36;;;;;;;2.17;1.60;;;23.20;26.20;;;;;;5052186;28;20224;-59
2021/03/10 01:46:02;;;;;;;2.30;1.70;;;23.20;26.30;;;;;;5053078;28;20206;-59
2021/03/10 01:48:28;;;;;;;2.03;1.40;;;23.10;26.20;;;;;;5048393;28;20201;-59
2021/03/10 01:50:54;;;;;;;1.67;1.57;;;23.10;26.20;;;;;;5051680;28;20202;-59
2021/03/10 01:53:20;;;;;;;1.67;1.50;;;23.10;26.20;;;;;;5052437;28;20590;-60
2021/03/10 01:55:46;;;;;;;1.70;1.60;;;23.10;26.20;;;;;;5052002;28;20197;-59
2021/03/10 01:58:12;;;;;;;1.57;1.40;;;23.20;26.30;;;;;;5053819;28;20213;-59
2021/03/10 02:00:39;;;;;;;1.40;1.30;;;23.10;26.20;;;;;;5051671;28;20227;-59
2021/03/10 02:03:05;;;;;;;1.50;1.40;;;23.20;26.30;;;;;;5052939;28;20221;-59
2021/03/10 02:05:31;;;;;;;1.63;1.47;;;23.10;26.20;;;;;;5052819;28;21799;-59
2021/03/10 02:07:57;;;;;;;1.50;1.40;;;23.10;26.20;;;;;;5053965;28;20208;-59
2021/03/10 02:10:23;;;;;;;2.17;1.50;;;23.10;26.20;;;;;;5053014;28;20201;-59
2021/03/10 02:12:49;;;;;;;2.13;1.50;;;23.20;26.30;;;;;;5052828;28;20712;-59
2021/03/10 02:15:15;;;;;;;2.13;1.40;;;23.10;26.20;;;;;;5052207;28;20323;-59
2021/03/10 02:17:41;;;;;;;2.37;1.40;;;23.10;26.20;;;;;;5053383;28;20209;-59
2021/03/10 02:20:07;;;;;;;1.63;1.47;;;23.10;26.20;;;;;;5052805;28;20209;-59
2021/03/10 02:22:33;;;;;;;1.53;1.43;;;23.10;26.20;;;;;;5052595;28;20220;-59
2021/03/10 02:24:59;;;;;;;2.03;1.47;;;23.20;26.30;;;;;;5052692;28;20205;-59
2021/03/10 02:27:34;;;;;;;1.60;1.50;;;23.20;26.30;;;;;;5053131;28;20661;-59
2021/03/10 02:30:00;;;;;;;1.43;1.33;;;23.20;26.80;;;;;;5052259;28;20625;-59
2021/03/10 02:32:26;;;;;;;1.50;1.40;;;23.10;26.20;;;;;;5053132;28;20232;-59
2021/03/10 02:34:52;;;;;;;2.47;1.63;;;23.10;26.20;;;;;;5052150;28;20240;-59
2021/03/10 02:37:18;;;;;;;1.57;1.47;;;23.20;26.30;;;;;;5052855;28;20201;-59
2021/03/10 02:39:44;;;;;;;1.63;1.43;;;23.10;26.20;;;;;;5051794;28;20205;-59
2021/03/10 02:42:10;;;;;;;1.60;1.40;;;23.10;26.20;;;;;;5052630;28;20219;-59
2021/03/10 02:44:35;;;;;;;1.40;1.30;;;23.20;26.30;;;;;;5052094;28;20207;-59
2021/03/10 02:47:01;;;;;;;1.37;1.27;;;23.10;26.20;;;;;;5051440;28;20204;-59
2021/03/10 02:49:27;;;;;;;1.83;1.57;;;23.20;26.30;;;;;;5051025;28;20204;-59
2021/03/10 02:51:53;;;;;;;1.50;1.40;;;23.10;26.30;;;;;;5048351;28;20588;-59
2021/03/10 02:54:19;;;;;;;1.57;1.47;;;23.10;26.20;;;;;;5037698;28;20229;-59
2021/03/10 02:56:45;;;;;;;1.70;1.60;;;23.20;26.30;;;;;;5040897;28;20205;-59
2021/03/10 02:59:11;;;;;;;1.73;1.63;;;23.20;26.30;;;;;;5051339;28;20205;-60
2021/03/10 03:01:39;;;;;;;1.83;1.30;;;23.10;26.30;;;;;;5052161;28;20225;-59
2021/03/10 03:04:05;;;;;;;1.70;1.60;;;23.20;26.30;;;;;;5051832;28;20212;-59
2021/03/10 03:06:30;;;;;;;2.27;1.50;;;23.10;26.30;;;;;;5052221;28;20218;-59
2021/03/10 03:08:56;;;;;;;1.53;1.20;;;23.10;26.30;;;;;;5051763;28;20204;-59
2021/03/10 03:11:22;;;;;;;1.50;1.40;;;23.10;26.30;;;;;;5052603;28;20204;-59
2021/03/10 03:13:48;;;;;;;1.50;1.40;;;23.10;26.30;;;;;;5050864;28;20223;-59
2021/03/10 03:16:14;;;;;;;1.50;1.40;;;23.10;26.30;;;;;;5052314;28;20618;-58
2021/03/10 03:18:40;;;;;;;2.03;1.77;;;23.10;26.30;;;;;;5051510;28;20204;-59
2021/03/10 03:21:06;;;;;;;1.43;1.33;;;23.10;26.30;;;;;;5052286;28;20201;-59
2021/03/10 03:23:32;;;;;;;1.70;1.60;;;23.10;26.30;;;;;;5050446;28;20601;-59
2021/03/10 03:25:58;;;;;;;2.47;1.47;;;23.10;26.30;;;;;;5052197;28;20212;-59
2021/03/10 03:28:24;;;;;;;2.00;1.60;;;23.10;26.30;;;;;;5051669;28;20258;-59
2021/03/10 03:30:50;;;;;;;2.10;1.77;;;23.10;26.30;;;;;;5051952;28;20203;-59
2021/03/10 03:33:16;;;;;;;1.60;1.50;;;23.10;26.30;;;;;;5051696;28;20232;-59
2021/03/10 03:35:42;;;;;;;2.20;1.40;;;23.10;26.30;;;;;;5050637;28;20727;-59
2021/03/10 03:38:08;;;;;;;1.50;1.40;;;23.10;26.30;;;;;;5051360;28;20196;-59
2021/03/10 03:40:34;;;;;;;1.50;1.40;;;23.10;26.30;;;;;;5051160;28;20250;-59
2021/03/10 03:43:00;;;;;;;2.70;1.33;;;23.10;26.30;;;;;;5051377;28;20723;-59
2021/03/10 03:45:26;;;;;;;2.07;1.50;;;23.10;26.30;;;;;;5050706;28;20205;-59
2021/03/10 03:47:52;;;;;;;1.63;1.43;;;23.10;26.30;;;;;;5049725;28;20205;-59
2021/03/10 03:50:18;;;;;;;1.47;1.37;;;23.20;26.40;;;;;;5049457;28;20208;-59
2021/03/10 03:52:44;;;;;;;1.30;1.20;;;23.10;26.30;;;;;;5050775;28;20220;-59
2021/03/10 03:55:10;;;;;;;1.30;1.20;;;23.10;26.30;;;;;;5051164;28;20233;-59
2021/03/10 03:57:36;;;;;;;1.30;1.20;;;23.10;26.30;;;;;;5051327;28;20650;-59
2021/03/10 04:00:02;;;;;;;1.50;1.40;;;23.10;26.30;;;;;;5050489;28;20205;-59
2021/03/10 04:02:28;;;;;;;1.60;1.50;;;23.20;26.40;;;;;;5050309;28;20272;-58
2021/03/10 04:04:54;;;;;;;1.50;1.40;;;23.10;26.30;;;;;;5050472;28;20213;-59
2021/03/10 04:07:20;;;;;;;1.50;1.40;;;23.10;26.90;;;;;;5050876;28;20200;-59
2021/03/10 04:09:46;;;;;;;1.40;1.30;;;23.10;26.30;;;;;;5050562;28;20676;-59
2021/03/10 04:12:12;;;;;;;2.07;1.60;;;23.10;26.30;;;;;;5050757;28;20219;-59
2021/03/10 04:14:38;;;;;;;1.53;1.40;;;23.10;26.30;;;;;;5049991;28;20236;-59
2021/03/10 04:17:04;;;;;;;1.20;1.10;;;23.10;26.40;;;;;;5050424;28;20661;-60
2021/03/10 04:19:30;;;;;;;1.30;1.20;;;23.10;26.40;;;;;;5049555;28;20211;-60
2021/03/10 04:21:56;;;;;;;1.50;1.40;;;23.10;26.40;;;;;;5050829;28;20227;-59
2021/03/10 04:24:22;;;;;;;1.70;1.60;;;23.10;26.40;;;;;;5049472;28;20543;-59
2021/03/10 04:26:48;;;;;;;1.47;1.27;;;23.10;26.40;;;;;;5050223;28;20258;-59
2021/03/10 04:29:14;;;;;;;1.50;1.40;;;23.10;26.40;;;;;;5050606;28;20202;-60
2021/03/10 04:31:40;;;;;;;1.50;1.40;;;23.10;26.40;;;;;;5050728;28;20224;-60
2021/03/10 04:34:06;;;;;;;1.67;1.30;;;23.10;26.40;;;;;;5050057;28;20235;-60
2021/03/10 04:36:32;;;;;;;1.63;1.40;;;23.10;26.40;;;;;;5050258;28;20213;-60
2021/03/10 04:38:58;;;;;;;1.43;1.33;;;23.10;26.40;;;;;;5051470;28;20560;-60
2021/03/10 04:41:24;;;;;;;1.30;1.20;;;23.10;26.40;;;;;;5050036;28;20232;-60
2021/03/10 04:43:50;;;;;;;1.60;1.40;;;23.10;26.40;;;;;;5050832;28;20209;-59
2021/03/10 04:46:16;;;;;;;1.50;1.40;;;23.10;26.40;;;;;;5048950;28;20648;-60
2021/03/10 04:48:42;;;;;;;1.47;1.37;;;23.10;26.40;;;;;;5045771;28;20201;-60
2021/03/10 04:51:08;;;;;;;1.50;1.40;;;23.20;26.50;;;;;;5049641;28;20244;-60
2021/03/10 04:53:34;;;;;;;1.60;1.40;;;23.20;26.40;;;;;;5044007;28;20366;-60
2021/03/10 04:55:59;;;;;;;2.80;1.40;;;23.20;26.50;;;;;;5040624;28;20200;-60
2021/03/10 04:58:25;;;;;;;1.40;1.30;;;23.20;26.60;;;;;;5050047;28;20196;-59
2021/03/10 05:00:51;;;;;;;1.60;1.50;;;23.10;26.50;;;;;;5050327;28;20224;-60
2021/03/10 05:03:17;;;;;;;1.33;1.23;;;23.10;26.60;;;;;;5049948;28;20213;-60
2021/03/10 05:05:43;;;;;;;1.60;1.50;;;23.10;26.60;;;;;;5050245;28;20196;-60
2021/03/10 05:08:10;;;;;;;2.23;1.63;;;23.10;26.60;;;;;;5050955;28;20204;-60
2021/03/10 05:10:36;;;;;;;1.57;1.37;;;23.10;26.60;;;;;;5050059;28;20487;-60
2021/03/10 05:13:02;;;;;;;1.43;1.20;;;23.10;26.60;;;;;;5050266;28;20277;-59
2021/03/10 05:15:28;;;;;;;1.50;1.40;;;23.10;26.60;;;;;;5054539;28;20243;-60
2021/03/10 05:17:54;;;;;;;1.30;1.20;;;23.10;26.60;;;;;;5053904;28;20202;-60
2021/03/10 05:20:20;;;;;;;1.77;1.10;;;23.10;26.60;;;;;;5054355;28;20205;-60
2021/03/10 05:22:46;;;;;;;1.63;1.50;;;23.10;26.60;;;;;;5053478;28;20229;-60
2021/03/10 05:25:12;;;;;;;1.40;1.30;;;23.10;26.60;;;;;;5053829;28;20211;-60
2021/03/10 05:27:38;;;;;;;1.40;1.30;;;23.10;26.50;;;;;;5052642;28;20216;-59
2021/03/10 05:30:04;;;;;;;1.50;1.40;;;23.10;26.50;;;;;;5053819;28;20208;-60
2021/03/10 05:32:30;;;;;;;1.30;1.20;;;23.10;26.50;;;;;;5053070;28;20233;-60
2021/03/10 05:34:56;;;;;;;2.23;1.40;;;23.10;26.60;;;;;;5054285;28;20231;-60
2021/03/10 05:37:22;;;;;;;1.90;1.40;;;23.10;26.60;;;;;;5053271;22;20237;-53
2021/03/10 05:39:48;;;;;;;1.37;1.27;;;23.10;26.60;;;;;;5034503;28;20229;-53
2021/03/10 05:42:14;;;;;;;2.20;1.50;;;23.10;26.60;;;;;;5032422;28;20225;-53
2021/03/10 05:44:40;;;;;;;1.30;1.20;;;23.10;26.60;;;;;;5034513;28;20209;-54
2021/03/10 05:47:06;;;;;;;1.53;1.27;;;23.10;26.70;;;;;;5033301;28;20208;-53
2021/03/10 05:49:32;;;;;;;1.57;1.47;;;23.10;26.70;;;;;;5034066;28;20201;-50
2021/03/10 05:51:58;;;;;;;1.77;1.30;;;23.10;26.70;;;;;;5032972;28;20705;-53
2021/03/10 05:54:24;;;;;;;1.50;1.40;;;23.10;26.70;;;;;;5034063;28;20252;-51
2021/03/10 05:56:49;;;;;;;1.70;1.53;;;23.10;26.70;;;;;;5031582;28;20320;-53
2021/03/10 05:59:15;;;;;;;1.50;1.40;;;23.10;26.70;;;;;;5034122;28;20228;-55
2021/03/10 06:01:41;;;;;;;2.10;1.57;;;23.10;26.70;;;;;;5032400;28;20217;-54
2021/03/10 06:04:07;;;;;;;3.33;1.40;;;23.10;26.70;;;;;;5034133;28;20263;-51
2021/03/10 06:06:33;;;;;;;2.27;1.87;;;23.10;26.70;;;;;;5033362;28;20672;-51
2021/03/10 06:08:59;;;;;;;1.63;1.53;;;23.10;26.60;;;;;;5033920;28;20213;-51
2021/03/10 06:11:25;;;;;;;1.60;1.50;;;23.10;26.60;;;;;;5033084;28;20230;-51
2021/03/10 06:13:51;;;;;;;1.50;1.40;;;23.10;26.60;;;;;;5033313;28;20621;-52
2021/03/10 06:16:17;;;;;;;1.53;1.40;;;23.10;26.60;;;;;;5033206;28;20234;-53
2021/03/10 06:18:43;;;;;;;2.03;1.50;;;23.10;26.60;;;;;;5032899;28;20673;-53
2021/03/10 06:21:09;;;;;;;1.57;1.47;;;23.10;26.60;;;;;;5032719;28;20236;-53
2021/03/10 06:23:35;;;;;;;1.33;1.23;;;23.10;26.60;;;;;;5031993;28;20202;-50
2021/03/10 06:26:01;;;;;;;1.87;1.40;;;23.10;26.60;;;;;;5032642;28;20256;-51
2021/03/10 06:28:27;;;;;;;1.70;1.60;;;23.10;26.60;;;;;;5033174;28;20194;-54
2021/03/10 06:30:53;;;;;;;1.50;1.40;;;23.10;26.60;;;;;;5032531;28;20630;-54
2021/03/10 06:33:19;;;;;;;1.77;1.37;;;23.10;26.60;;;;;;5031861;28;20216;-54
2021/03/10 06:35:45;;;;;;;1.60;1.50;;;23.10;26.70;;;;;;5032287;28;20196;-55
2021/03/10 06:38:11;;;;;;;1.33;1.23;;;23.10;26.70;;;;;;5033171;28;20563;-52
2021/03/10 06:40:37;;;;;;;2.80;1.20;;;23.10;26.70;;;;;;5032745;28;20227;-55
2021/03/10 06:43:03;;;;;;;1.43;1.33;;;23.10;26.70;;;;;;5032168;28;20209;-53
2021/03/10 06:45:29;;;;;;;1.33;1.23;;;23.10;26.70;;;;;;5032232;28;20649;-52
2021/03/10 06:47:55;;;;;;;1.40;1.30;;;23.10;26.70;;;;;;5032740;28;20228;-52
2021/03/10 06:50:21;;;;;;;2.20;1.53;;;23.10;26.70;;;;;;5032191;28;20209;-52
2021/03/10 06:52:47;;;;;;;1.50;1.23;;;23.10;26.70;;;;;;5032120;28;20655;-55
2021/03/10 06:55:12;;;;;;;1.97;1.70;;;23.10;26.70;;;;;;5028969;28;20229;-53
2021/03/10 06:57:38;;;;;;;1.57;1.40;;;23.10;26.70;;;;;;5031483;28;20204;-54
2021/03/10 07:00:05;;;;;;;3.13;1.43;;;23.10;26.70;;;;;;5032206;28;20685;-53
2021/03/10 07:02:32;;;;;;;2.63;1.30;;;23.10;26.60;;;;;;5032442;28;20256;-50
2021/03/10 07:04:58;;;;;;;1.60;1.50;;;23.10;26.60;;;;;;5032098;28;20203;-54
2021/03/10 07:07:24;;;;;;;1.70;1.60;;;23.10;26.60;;;;;;5032188;28;20272;-53
2021/03/10 07:09:50;;;;;;;1.60;1.40;;;23.10;26.60;;;;;;5031751;28;20197;-52
2021/03/10 07:12:16;;;;;;;1.67;1.53;;;23.10;26.60;;;;;;5031826;28;20710;-53
2021/03/10 07:14:42;;;;;;;1.50;1.40;;;23.10;26.60;;;;;;5031257;28;20225;-50
2021/03/10 07:17:08;;;;;;;2.30;1.70;;;23.10;26.60;;;;;;5032552;28;20614;-54
2021/03/10 07:19:34;;;;;;;1.70;1.60;;;23.10;26.60;;;;;;5031933;28;20214;-52
2021/03/10 07:22:00;;;;;;;1.70;1.57;;;23.10;26.60;;;;;;5031760;28;20269;-53
2021/03/10 07:24:26;;;;;;;1.87;1.63;;;23.10;26.70;;;;;;5031852;28;20558;-55
2021/03/10 07:26:52;;;;;;;1.63;1.53;;;23.10;26.70;;;;;;5028285;28;20214;-53
2021/03/10 07:29:18;;;;;;;1.67;1.50;;;23.10;26.70;;;;;;5032433;28;20198;-53
2021/03/10 07:31:44;;;;;;;1.43;1.33;;;23.10;26.70;;;;;;5031004;28;20216;-54
2021/03/10 07:34:10;;;;;;;1.50;1.30;;;23.10;26.70;;;;;;5021154;28;20291;-50
2021/03/10 07:36:36;;;;;;;3.07;1.67;;;23.10;26.70;;;;;;5030482;28;20653;-53
2021/03/10 07:39:02;;;;;;;1.50;1.40;;;23.10;26.70;;;;;;5031547;28;20209;-53
2021/03/10 07:41:28;;;;;;;1.60;1.30;;;23.10;26.70;;;;;;5030869;28;20696;-53
2021/03/10 07:43:57;;;;;;;2.30;1.50;;;23.10;26.70;;;;;;5031498;28;20214;-53
2021/03/10 07:46:23;;;;;;;1.77;1.67;;;23.10;26.70;;;;;;5031275;28;20236;-56
2021/03/10 07:48:49;;;;;;;1.40;1.30;;;23.10;27.20;;;;;;5029581;28;20615;-53
2021/03/10 07:51:15;;;;;;;1.87;1.50;;;23.10;26.70;;;;;;5020796;28;20272;-48
2021/03/10 07:53:41;;;;;;;2.43;1.50;;;23.10;26.70;;;;;;5031192;28;20237;-53
2021/03/10 07:56:07;;;;;;;1.57;1.40;;;23.10;26.70;;;;;;5030880;28;20662;-51
2021/03/10 07:58:33;;;;;;;2.03;1.30;;;23.10;26.60;;;;;;5031488;28;20246;-51
2021/03/10 08:00:59;;;;;;;2.33;1.60;;;23.10;26.60;;;;;;5030376;28;20228;-50
2021/03/10 08:03:25;;;;;;;1.60;1.50;;;23.10;26.70;;;;;;5030364;28;20209;-52
2021/03/10 08:05:51;;;;;;;2.17;1.50;;;23.10;26.70;;;;;;5031020;28;20263;-53
2021/03/10 08:08:17;;;;;;;1.53;1.30;;;23.10;26.70;;;;;;5031569;28;20213;-52
2021/03/10 08:10:42;;;;;;;1.80;1.70;;;23.10;26.70;;;;;;5031367;28;20229;-52
2021/03/10 08:13:08;;;;;;;1.50;1.40;;;23.10;26.70;;;;;;5030905;28;20209;-55
2021/03/10 08:15:34;;;;;;;2.17;1.40;;;23.10;26.70;;;;;;5030885;28;20236;-54
2021/03/10 08:18:00;;;;;;;1.63;1.50;;;23.10;26.70;;;;;;5030805;28;20264;-52
2021/03/10 08:20:26;;;;;;;6.40;2.03;;;23.10;27.20;;;;;;5031057;28;20581;-51
2021/03/10 08:22:52;;;;;;;4.90;2.00;;;23.10;27.40;;;;;;5030334;28;20213;-55
2021/03/10 08:25:18;;;;;;;4.70;2.57;;;23.10;27.50;;;;;;5029091;28;20215;-47
2021/03/10 08:27:44;;;;;;;4.57;1.50;;;23.20;27.40;;;;;;5030417;28;20302;-54
2021/03/10 08:30:10;;;;;;;2.40;1.93;;;23.20;27.20;;;;;;5030900;28;20331;-57
2021/03/10 08:32:36;;;;;;;2.87;1.77;;;23.10;27.10;;;;;;5029530;28;20202;-56
2021/03/10 08:35:02;;;;;;;18.40;16.40;;;23.10;27.00;;;;;;5030432;28;20772;-51
2021/03/10 08:37:28;;;;;;;19.63;17.03;;;20.60;22.50;;;;;;5030722;28;20220;-52
2021/03/10 08:39:54;;;;;;;14.40;13.00;;;17.00;27.80;;;;;;5030508;28;20294;-52
2021/03/10 08:42:20;;;;;;;11.20;10.10;;;19.30;26.50;;;;;;5030180;28;20550;-48
2021/03/10 08:44:46;;;;;;;8.87;8.00;;;20.60;26.00;;;;;;5030878;28;20212;-53
2021/03/10 08:47:12;;;;;;;8.00;5.97;;;21.40;25.30;;;;;;5031437;28;20546;-54
2021/03/10 08:49:38;;;;;;;6.00;5.50;;;21.90;25.20;;;;;;5034537;28;20205;-53
2021/03/10 08:52:04;;;;;;;5.40;4.93;;;22.20;25.20;;;;;;5032852;28;20294;-53
2021/03/10 08:54:30;;;;;;;4.13;3.67;;;22.40;25.20;;;;;;5035034;28;20229;-54
2021/03/10 08:56:58;;;;;;;3.70;3.40;;;22.50;25.30;;;;;;5033719;28;20204;-50
2021/03/10 08:59:24;;;;;;;3.73;3.33;;;22.60;25.30;;;;;;5034699;28;20231;-52
2021/03/10 09:01:50;;;;;;;3.43;3.00;;;22.70;25.40;;;;;;5033101;28;20228;-53
2021/03/10 09:04:16;;;;;;;3.57;2.40;;;22.70;25.70;;;;;;5034226;28;20647;-51
2021/03/10 09:06:42;;;;;;;3.63;3.10;;;22.80;25.60;;;;;;5032207;28;20208;-49
2021/03/10 09:09:08;;;;;;;4.07;2.83;;;22.90;25.70;;;;;;5020277;28;20209;-52
2021/03/10 09:11:34;;;;;;;4.77;2.57;;;22.90;25.70;;;;;;5027547;28;20601;-53
2021/03/10 09:14:00;;;;;;;3.77;2.37;;;22.90;25.80;;;;;;5033357;28;20290;-49
2021/03/10 09:16:26;;;;;;;2.97;2.53;;;23.00;26.20;;;;;;5033463;28;20216;-52
2021/03/10 09:18:52;;;;;;;2.43;2.20;;;23.10;26.80;;;;;;5030711;28;20216;-49
2021/03/10 09:21:18;;;;;;;3.30;2.20;;;23.10;26.30;;;;;;5032419;28;20270;-49
2021/03/10 09:23:44;;;;;;;2.40;2.20;;;23.10;26.40;;;;;;5033225;28;20670;-58
2021/03/10 09:26:10;;;;;;;2.37;2.07;;;23.00;26.20;;;;;;5033261;28;20214;-56
2021/03/10 09:28:37;;;;;;;3.03;2.10;;;23.00;26.20;;;;;;5033392;28;20575;-58
2021/03/10 09:31:02;;;;;;;2.30;1.90;;;23.00;26.20;;;;;;5029668;28;20560;-56
2021/03/10 09:33:29;;;;;;;2.93;2.30;;;23.00;26.30;;;;;;5029181;28;20217;-58
2021/03/10 09:35:54;;;;;;;3.40;2.13;;;22.90;26.30;;;;;;5034264;28;20215;-60
2021/03/10 09:38:20;;;;;;;5.97;2.40;;;23.00;26.70;;;;;;5033557;28;20209;-59
2021/03/10 09:40:46;;;;;;;4.93;2.50;;;23.00;26.60;;;;;;5033113;28;20277;-50
2021/03/10 09:43:12;;;;;;;4.23;2.37;;;23.00;27.40;;;;;;5033133;28;20210;-48
2021/03/10 09:45:38;;;;;;;3.30;2.53;;;23.00;27.00;;;;;;5033244;28;20213;-50
2021/03/10 09:48:04;;;;;;;3.63;2.00;;;23.00;26.90;;;;;;5033665;28;20248;-50
2021/03/10 09:50:30;;;;;;;4.37;2.73;;;23.00;26.80;;;;;;5033013;28;20225;-57
2021/03/10 09:52:56;;;;;;;3.23;2.53;;;23.00;27.20;;;;;;5029268;28;20205;-51
2021/03/10 09:55:22;;;;;;;2.93;2.27;;;23.00;26.90;;;;;;5033104;28;20240;-51
2021/03/10 09:57:48;;;;;;;4.43;3.23;;;23.00;26.90;;;;;;5033125;28;20736;-51
2021/03/10 10:00:14;;;;;;;6.40;3.90;;;23.00;26.70;;;;;;5029905;28;20229;-49
2021/03/10 10:02:40;;;;;;;3.50;3.10;;;22.90;26.60;;;;;;5032682;28;20561;-56
2021/03/10 10:05:06;;;;;;;6.60;2.73;;;23.00;26.70;;;;;;5032455;28;20263;-49
2021/03/10 10:07:32;;;;;;;7.37;2.83;;;23.00;26.60;;;;;;5028074;28;20211;-46
2021/03/10 10:09:58;;;;;;;4.13;2.53;;;23.00;26.70;;;;;;5032690;28;20224;-46
2021/03/10 10:12:24;;;;;;;4.40;2.30;;;23.00;26.70;;;;;;5033468;28;20241;-49
2021/03/10 10:14:50;;;;;;;2.97;2.23;;;23.00;26.70;;;;;;5032855;28;20715;-48
2021/03/10 10:17:16;;;;;;;5.70;2.17;;;23.00;26.80;;;;;;5031549;28;20206;-49
2021/03/10 10:19:42;;;;;;;5.00;2.43;;;23.00;26.80;;;;;;5030279;28;20225;-51
2021/03/10 10:22:08;;;;;;;6.47;2.57;;;23.00;26.90;;;;;;5033425;28;20240;-48
2021/03/10 10:24:34;;;;;;;6.90;2.77;;;23.10;27.00;;;;;;5032799;28;20237;-48
2021/03/10 10:27:00;;;;;;;5.70;2.70;;;23.10;27.10;;;;;;5033275;28;20205;-48
2021/03/10 10:29:26;;;;;;;3.80;2.17;;;23.10;27.60;;;;;;5032618;28;20210;-51
2021/03/10 10:31:52;;;;;;;5.93;2.40;;;23.00;27.30;;;;;;5030622;28;20197;-52
2021/03/10 10:34:18;;;;;;;4.77;3.10;;;23.10;28.50;;;;;;5033046;28;20237;-55
2021/03/10 10:36:44;;;;;;;2.80;2.10;;;23.20;28.20;;;;;;5032544;28;20202;-53
2021/03/10 10:39:10;;;;;;;3.90;2.53;;;23.20;27.60;;;;;;5031706;28;20566;-48
2021/03/10 10:41:36;;;;;;;2.60;2.20;;;23.10;27.50;;;;;;5032267;28;20248;-54
2021/03/10 10:44:02;;;;;;;4.83;2.93;;;23.10;27.40;;;;;;5032631;28;20214;-52
2021/03/10 10:46:28;;;;;;;6.77;3.10;;;23.10;28.10;;;;;;5031936;28;20610;-50
2021/03/10 10:48:54;;;;;;;8.33;2.60;;;23.10;28.10;;;;;;5032083;28;20202;-56
2021/03/10 10:51:21;;;;;;;5.73;2.60;;;23.20;29.20;;;;;;5027216;28;20241;-48
2021/03/10 10:53:47;;;;;;;6.90;2.87;;;23.20;28.20;;;;;;5029143;28;20196;-54
2021/03/10 10:56:13;;;;;;;7.57;2.77;;;23.20;28.20;;;;;;5032597;28;20558;-53
2021/03/10 10:58:39;;;;;;;4.47;3.10;;;23.20;28.60;;;;;;5032954;28;20209;-49
2021/03/10 11:01:05;;;;;;;8.80;2.87;;;23.20;28.10;;;;;;5029794;28;20673;-50
2021/03/10 11:03:31;;;;;;;8.83;3.27;;;23.10;28.50;;;;;;5031836;28;20216;-53
2021/03/10 11:05:57;;;;;;;6.13;2.33;;;23.10;28.10;;;;;;5031967;28;20205;-46
2021/03/10 11:08:24;;;;;;;7.82;2.72;;;23.10;27.80;;;;;;5031948;28;20251;-58
2021/03/10 11:10:50;;;;;;;5.27;2.77;;;23.10;27.70;;;;;;5031775;28;20254;-50
2021/03/10 11:13:16;;;;;;;9.63;3.03;;;23.10;28.10;;;;;;5024833;28;20252;-51
2021/03/10 11:15:42;;;;;;;6.93;2.70;;;23.20;28.20;;;;;;5031969;28;20230;-51
2021/03/10 11:18:08;;;;;;;5.53;2.33;;;23.20;28.70;;;;;;5032065;28;20609;-52
2021/03/10 11:20:34;;;;;;;5.57;2.63;;;23.20;27.60;;;;;;5032576;28;20225;-57
2021/03/10 11:23:00;;;;;;;5.47;2.27;;;23.20;27.90;;;;;;5031613;28;20213;-57
2021/03/10 11:25:26;;;;;;;4.63;2.03;;;23.20;27.90;;;;;;5030760;28;20235;-57
2021/03/10 11:27:52;;;;;;;6.73;2.97;;;23.10;27.90;;;;;;5032088;28;20282;-50
2021/03/10 11:30:18;;;;;;;6.70;2.50;;;23.10;28.10;;;;;;5030418;28;20261;-54
2021/03/10 11:32:44;;;;;;;4.23;2.47;;;23.10;28.10;;;;;;5031626;28;20209;-53
2021/03/10 11:35:10;;;;;;;4.27;2.40;;;23.10;28.30;;;;;;5031312;28;20235;-53
2021/03/10 11:37:36;;;;;;;5.93;2.50;;;23.10;28.50;;;;;;5029691;28;20221;-56
2021/03/10 11:40:02;;;;;;;4.03;2.40;;;23.00;28.40;;;;;;5026736;28;20222;-55
2021/03/10 11:42:28;;;;;;;3.80;2.33;;;23.10;28.10;;;;;;5020897;28;20662;-53
2021/03/10 11:44:54;;;;;;;2.60;2.10;;;23.10;28.10;;;;;;5030646;28;20206;-55
2021/03/10 11:47:20;;;;;;;4.63;2.67;;;23.10;28.10;;;;;;5031013;28;20208;-56
2021/03/10 11:49:46;;;;;;;7.83;2.70;;;23.10;28.10;;;;;;5030429;28;20638;-55
2021/03/10 11:52:12;;;;;;;4.03;2.43;;;23.10;28.10;;;;;;5025877;28;20209;-54
2021/03/10 11:54:38;;;;;;;3.53;2.13;;;23.10;28.10;;;;;;5031600;28;20240;-53
2021/03/10 11:57:04;;;;;;;3.23;2.23;;;23.10;27.90;;;;;;5036010;28;20205;-51
2021/03/10 11:59:30;;;;;;;3.80;2.10;;;23.10;27.70;;;;;;5028701;28;20240;-53
2021/03/10 12:01:55;;;;;;;3.50;2.30;;;23.10;27.60;;;;;;5031136;28;21063;-53
2021/03/10 12:04:21;;;;;;;3.03;2.00;;;23.10;27.60;;;;;;5027737;28;20208;-53
2021/03/10 12:06:47;;;;;;;4.57;2.30;;;23.10;27.60;;;;;;5022739;28;20209;-56
2021/03/10 12:09:13;;;;;;;3.80;2.23;;;23.20;28.20;;;;;;5026434;28;20370;-52
2021/03/10 12:11:39;;;;;;;2.33;2.13;;;23.20;28.20;;;;;;5029995;28;20210;-54
2021/03/10 12:14:05;;;;;;;2.57;2.07;;;23.30;27.90;;;;;;5030160;28;20233;-54
2021/03/10 12:16:32;;;;;;;3.97;1.90;;;23.30;27.70;;;;;;5030488;28;20210;-52
2021/03/10 12:18:58;;;;;;;3.53;2.20;;;23.30;27.50;;;;;;5023940;28;20225;-50
2021/03/10 12:21:25;;;;;;;5.33;2.33;;;23.30;27.40;;;;;;5029141;28;20206;-56
2021/03/10 12:23:51;;;;;;;6.27;2.20;;;23.30;27.40;;;;;;5030413;28;20287;-52
2021/03/10 12:26:16;;;;;;;6.60;2.33;;;23.30;28.40;;;;;;5029442;28;20210;-54
2021/03/10 12:28:42;;;;;;;3.00;2.30;;;23.30;28.30;;;;;;5029230;28;20202;-55
2021/03/10 12:31:08;;;;;;;6.53;2.77;;;23.30;28.30;;;;;;5031073;28;20961;-55
2021/03/10 12:33:34;;;;;;;6.73;3.10;;;23.40;28.30;;;;;;5029257;28;20202;-50
2021/03/10 12:36:00;;;;;;;6.37;3.10;;;23.40;28.30;;;;;;5029325;28;20234;-55
2021/03/10 12:38:26;;;;;;;7.10;4.00;;;23.40;28.30;;;;;;5028265;28;20554;-53